sensor_id;sensor_type;location;lat;lon;timestamp;temperature;humidity
22925;DHT22;11628;51.072;3.712;2022-07-23T00:01:18;19.40;99.90
22925;DHT22;11628;51.072;3.712;2022-07-23T00:03:44;19.40;99.90
22925;DHT22;11628;51.072;3.712;2022-07-23T00:06:10;19.40;99.90
22925;DHT22;11628;51.072;3.712;2022-07-23T00:08:36;19.40;99.90
22925;DHT22;11628;51.072;3.712;2022-07-23T00:11:02;19.40;99.90
22925;DHT22;11628;51.072;3.712;2022-07-23T00:13:28;19.40;99.90
22925;DHT22;11628;51.072;3.712;2022-07-23T00:15:54;19.40;99.90
22925;DHT22;11628;51.072;3.712;2022-07-23T00:18:20;19.30;99.90
22925;DHT22;11628;51.072;3.712;2022-07-23T00:20:46;19.20;99.90
22925;DHT22;11628;51.072;3.712;2022-07-23T00:23:12;19.10;99.90
22925;DHT22;11628;51.072;3.712;2022-07-23T00:25:38;19.20;99.90
22925;DHT22;11628;51.072;3.712;2022-07-23T00:28:04;19.30;99.90
22925;DHT22;11628;51.072;3.712;2022-07-23T00:30:31;19.20;99.90
22925;DHT22;11628;51.072;3.712;2022-07-23T00:32:59;19.10;99.90
22925;DHT22;11628;51.072;3.712;2022-07-23T00:35:26;19.10;99.90
22925;DHT22;11628;51.072;3.712;2022-07-23T00:37:54;19.10;99.90
22925;DHT22;11628;51.072;3.712;2022-07-23T00:40:19;19.00;99.90
22925;DHT22;11628;51.072;3.712;2022-07-23T00:42:45;19.00;99.90
22925;DHT22;11628;51.072;3.712;2022-07-23T00:45:11;19.00;99.90
22925;DHT22;11628;51.072;3.712;2022-07-23T00:47:37;18.90;99.90
22925;DHT22;11628;51.072;3.712;2022-07-23T00:50:04;19.00;99.90
22925;DHT22;11628;51.072;3.712;2022-07-23T00:52:31;19.10;99.90
22925;DHT22;11628;51.072;3.712;2022-07-23T00:54:57;19.00;99.90
22925;DHT22;11628;51.072;3.712;2022-07-23T00:57:23;18.90;99.90
22925;DHT22;11628;51.072;3.712;2022-07-23T00:59:49;18.90;99.90
22925;DHT22;11628;51.072;3.712;2022-07-23T01:02:14;18.90;99.90
22925;DHT22;11628;51.072;3.712;2022-07-23T01:04:40;18.70;99.90
22925;DHT22;11628;51.072;3.712;2022-07-23T01:07:07;18.70;99.90
22925;DHT22;11628;51.072;3.712;2022-07-23T01:09:33;18.60;99.90
22925;DHT22;11628;51.072;3.712;2022-07-23T01:11:59;18.70;99.90
22925;DHT22;11628;51.072;3.712;2022-07-23T01:14:25;18.80;99.90
22925;DHT22;11628;51.072;3.712;2022-07-23T01:16:50;18.80;99.90
22925;DHT22;11628;51.072;3.712;2022-07-23T01:19:18;18.70;99.90
22925;DHT22;11628;51.072;3.712;2022-07-23T01:21:47;18.60;99.90
22925;DHT22;11628;51.072;3.712;2022-07-23T01:24:14;18.60;99.90
22925;DHT22;11628;51.072;3.712;2022-07-23T01:26:45;18.60;99.90
22925;DHT22;11628;51.072;3.712;2022-07-23T01:29:11;18.50;99.90
22925;DHT22;11628;51.072;3.712;2022-07-23T01:31:37;18.40;99.90
22925;DHT22;11628;51.072;3.712;2022-07-23T01:34:03;18.40;99.90
22925;DHT22;11628;51.072;3.712;2022-07-23T01:36:29;18.40;99.90
22925;DHT22;11628;51.072;3.712;2022-07-23T01:38:55;18.50;99.90
22925;DHT22;11628;51.072;3.712;2022-07-23T01:41:21;18.40;99.90
22925;DHT22;11628;51.072;3.712;2022-07-23T01:43:47;18.40;99.90
22925;DHT22;11628;51.072;3.712;2022-07-23T01:46:13;18.40;99.90
22925;DHT22;11628;51.072;3.712;2022-07-23T01:48:39;18.40;99.90
22925;DHT22;11628;51.072;3.712;2022-07-23T01:51:05;18.30;99.90
22925;DHT22;11628;51.072;3.712;2022-07-23T01:53:30;18.30;99.90
22925;DHT22;11628;51.072;3.712;2022-07-23T01:55:59;18.20;99.90
22925;DHT22;11628;51.072;3.712;2022-07-23T01:58:26;18.10;99.90
22925;DHT22;11628;51.072;3.712;2022-07-23T02:00:52;18.00;99.90
22925;DHT22;11628;51.072;3.712;2022-07-23T02:03:17;18.00;99.90
22925;DHT22;11628;51.072;3.712;2022-07-23T02:05:43;17.90;99.90
22925;DHT22;11628;51.072;3.712;2022-07-23T02:08:09;17.80;99.90
22925;DHT22;11628;51.072;3.712;2022-07-23T02:10:35;17.80;99.90
22925;DHT22;11628;51.072;3.712;2022-07-23T02:13:00;17.70;99.90
22925;DHT22;11628;51.072;3.712;2022-07-23T02:15:26;17.70;99.90
22925;DHT22;11628;51.072;3.712;2022-07-23T02:17:54;17.70;99.90
22925;DHT22;11628;51.072;3.712;2022-07-23T02:20:19;17.70;99.90
22925;DHT22;11628;51.072;3.712;2022-07-23T02:22:45;17.70;99.90
22925;DHT22;11628;51.072;3.712;2022-07-23T02:25:11;17.70;99.90
22925;DHT22;11628;51.072;3.712;2022-07-23T02:27:37;17.70;99.90
22925;DHT22;11628;51.072;3.712;2022-07-23T02:30:03;17.70;99.90
22925;DHT22;11628;51.072;3.712;2022-07-23T02:32:29;17.70;99.90
22925;DHT22;11628;51.072;3.712;2022-07-23T02:34:55;17.70;99.90
22925;DHT22;11628;51.072;3.712;2022-07-23T02:37:21;17.70;99.90
22925;DHT22;11628;51.072;3.712;2022-07-23T02:39:47;17.60;99.90
22925;DHT22;11628;51.072;3.712;2022-07-23T02:42:14;17.50;99.90
22925;DHT22;11628;51.072;3.712;2022-07-23T02:44:40;17.50;99.90
22925;DHT22;11628;51.072;3.712;2022-07-23T02:47:06;17.40;99.90
22925;DHT22;11628;51.072;3.712;2022-07-23T02:49:32;17.50;99.90
22925;DHT22;11628;51.072;3.712;2022-07-23T02:51:58;17.50;99.90
22925;DHT22;11628;51.072;3.712;2022-07-23T02:54:23;17.50;99.90
22925;DHT22;11628;51.072;3.712;2022-07-23T02:56:49;17.50;99.90
22925;DHT22;11628;51.072;3.712;2022-07-23T02:59:16;17.50;99.90
22925;DHT22;11628;51.072;3.712;2022-07-23T03:01:42;17.40;99.90
22925;DHT22;11628;51.072;3.712;2022-07-23T03:04:08;17.40;99.90
22925;DHT22;11628;51.072;3.712;2022-07-23T03:06:34;17.40;99.90
22925;DHT22;11628;51.072;3.712;2022-07-23T03:09:00;17.40;99.90
22925;DHT22;11628;51.072;3.712;2022-07-23T03:11:25;17.40;99.90
22925;DHT22;11628;51.072;3.712;2022-07-23T03:13:51;17.30;99.90
22925;DHT22;11628;51.072;3.712;2022-07-23T03:16:17;17.30;99.90
22925;DHT22;11628;51.072;3.712;2022-07-23T03:18:42;17.30;99.90
22925;DHT22;11628;51.072;3.712;2022-07-23T03:21:08;17.30;99.90
22925;DHT22;11628;51.072;3.712;2022-07-23T03:23:34;17.30;99.90
22925;DHT22;11628;51.072;3.712;2022-07-23T03:26:00;17.20;99.90
22925;DHT22;11628;51.072;3.712;2022-07-23T03:28:26;17.10;99.90
22925;DHT22;11628;51.072;3.712;2022-07-23T03:30:51;17.00;99.90
22925;DHT22;11628;51.072;3.712;2022-07-23T03:33:18;17.00;99.90
22925;DHT22;11628;51.072;3.712;2022-07-23T03:35:44;16.90;99.90
22925;DHT22;11628;51.072;3.712;2022-07-23T03:38:10;17.00;99.90
22925;DHT22;11628;51.072;3.712;2022-07-23T03:40:36;17.00;99.90
22925;DHT22;11628;51.072;3.712;2022-07-23T03:43:02;17.00;99.90
22925;DHT22;11628;51.072;3.712;2022-07-23T03:45:28;16.90;99.90
22925;DHT22;11628;51.072;3.712;2022-07-23T03:47:54;17.00;99.90
22925;DHT22;11628;51.072;3.712;2022-07-23T03:50:20;16.90;99.90
22925;DHT22;11628;51.072;3.712;2022-07-23T03:52:46;16.90;99.90
22925;DHT22;11628;51.072;3.712;2022-07-23T03:55:12;16.80;99.90
22925;DHT22;11628;51.072;3.712;2022-07-23T03:57:37;16.90;99.90
22925;DHT22;11628;51.072;3.712;2022-07-23T04:00:05;16.90;99.90
22925;DHT22;11628;51.072;3.712;2022-07-23T04:02:31;17.00;99.90
22925;DHT22;11628;51.072;3.712;2022-07-23T04:04:57;16.90;99.90
22925;DHT22;11628;51.072;3.712;2022-07-23T04:07:23;16.90;99.90
22925;DHT22;11628;51.072;3.712;2022-07-23T04:09:48;16.90;99.90
22925;DHT22;11628;51.072;3.712;2022-07-23T04:12:14;16.90;99.90
22925;DHT22;11628;51.072;3.712;2022-07-23T04:14:40;16.80;99.90
22925;DHT22;11628;51.072;3.712;2022-07-23T04:17:06;16.80;99.90
22925;DHT22;11628;51.072;3.712;2022-07-23T04:19:32;16.70;99.90
22925;DHT22;11628;51.072;3.712;2022-07-23T04:21:58;16.80;99.90
22925;DHT22;11628;51.072;3.712;2022-07-23T04:24:23;16.90;99.90
22925;DHT22;11628;51.072;3.712;2022-07-23T04:26:49;16.90;99.90
22925;DHT22;11628;51.072;3.712;2022-07-23T04:29:15;17.00;99.90
22925;DHT22;11628;51.072;3.712;2022-07-23T04:31:41;17.00;99.90
22925;DHT22;11628;51.072;3.712;2022-07-23T04:34:06;17.00;99.90
22925;DHT22;11628;51.072;3.712;2022-07-23T04:36:32;17.10;99.90
22925;DHT22;11628;51.072;3.712;2022-07-23T04:38:58;17.10;99.90
22925;DHT22;11628;51.072;3.712;2022-07-23T04:41:23;17.10;99.90
22925;DHT22;11628;51.072;3.712;2022-07-23T04:43:49;17.10;99.90
22925;DHT22;11628;51.072;3.712;2022-07-23T04:46:15;17.20;99.90
22925;DHT22;11628;51.072;3.712;2022-07-23T04:48:40;17.20;99.90
22925;DHT22;11628;51.072;3.712;2022-07-23T04:51:07;17.20;99.90
22925;DHT22;11628;51.072;3.712;2022-07-23T04:53:33;17.30;99.90
22925;DHT22;11628;51.072;3.712;2022-07-23T04:55:59;17.30;99.90
22925;DHT22;11628;51.072;3.712;2022-07-23T04:58:25;17.30;99.90
22925;DHT22;11628;51.072;3.712;2022-07-23T05:00:50;17.30;99.90
22925;DHT22;11628;51.072;3.712;2022-07-23T05:03:17;17.30;99.90
22925;DHT22;11628;51.072;3.712;2022-07-23T05:05:43;17.30;99.90
22925;DHT22;11628;51.072;3.712;2022-07-23T05:08:09;17.40;99.90
22925;DHT22;11628;51.072;3.712;2022-07-23T05:10:34;17.50;99.90
22925;DHT22;11628;51.072;3.712;2022-07-23T05:13:00;17.50;99.90
22925;DHT22;11628;51.072;3.712;2022-07-23T05:15:26;17.60;99.90
22925;DHT22;11628;51.072;3.712;2022-07-23T05:17:51;17.80;99.90
22925;DHT22;11628;51.072;3.712;2022-07-23T05:20:17;17.90;99.90
22925;DHT22;11628;51.072;3.712;2022-07-23T05:22:43;18.00;99.90
22925;DHT22;11628;51.072;3.712;2022-07-23T05:25:09;18.10;99.90
22925;DHT22;11628;51.072;3.712;2022-07-23T05:27:35;18.10;99.90
22925;DHT22;11628;51.072;3.712;2022-07-23T05:30:01;18.10;99.90
22925;DHT22;11628;51.072;3.712;2022-07-23T05:32:27;18.10;99.90
22925;DHT22;11628;51.072;3.712;2022-07-23T05:34:52;18.30;99.90
22925;DHT22;11628;51.072;3.712;2022-07-23T05:37:18;18.40;99.90
22925;DHT22;11628;51.072;3.712;2022-07-23T05:39:44;18.60;99.90
22925;DHT22;11628;51.072;3.712;2022-07-23T05:42:09;18.70;99.90
22925;DHT22;11628;51.072;3.712;2022-07-23T05:44:35;18.80;99.90
22925;DHT22;11628;51.072;3.712;2022-07-23T05:47:01;19.00;99.90
22925;DHT22;11628;51.072;3.712;2022-07-23T05:49:27;19.30;99.90
22925;DHT22;11628;51.072;3.712;2022-07-23T05:51:52;19.60;99.90
22925;DHT22;11628;51.072;3.712;2022-07-23T05:54:18;19.90;99.90
22925;DHT22;11628;51.072;3.712;2022-07-23T05:56:44;20.10;99.90
22925;DHT22;11628;51.072;3.712;2022-07-23T05:59:09;20.20;99.90
22925;DHT22;11628;51.072;3.712;2022-07-23T06:01:37;20.10;99.90
22925;DHT22;11628;51.072;3.712;2022-07-23T06:04:03;19.80;99.90
22925;DHT22;11628;51.072;3.712;2022-07-23T06:06:28;19.60;99.90
22925;DHT22;11628;51.072;3.712;2022-07-23T06:08:54;19.90;99.90
22925;DHT22;11628;51.072;3.712;2022-07-23T06:11:20;20.00;99.90
22925;DHT22;11628;51.072;3.712;2022-07-23T06:13:45;20.10;99.90
22925;DHT22;11628;51.072;3.712;2022-07-23T06:16:11;20.20;99.90
22925;DHT22;11628;51.072;3.712;2022-07-23T06:18:37;20.50;99.90
22925;DHT22;11628;51.072;3.712;2022-07-23T06:21:02;20.80;99.90
22925;DHT22;11628;51.072;3.712;2022-07-23T06:23:28;21.10;99.90
22925;DHT22;11628;51.072;3.712;2022-07-23T06:25:54;20.90;99.90
22925;DHT22;11628;51.072;3.712;2022-07-23T06:28:20;20.80;99.90
22925;DHT22;11628;51.072;3.712;2022-07-23T06:30:45;20.80;99.90
22925;DHT22;11628;51.072;3.712;2022-07-23T06:33:13;20.90;99.90
22925;DHT22;11628;51.072;3.712;2022-07-23T06:35:39;20.60;99.90
22925;DHT22;11628;51.072;3.712;2022-07-23T06:38:04;20.50;99.90
22925;DHT22;11628;51.072;3.712;2022-07-23T06:40:30;20.60;99.90
22925;DHT22;11628;51.072;3.712;2022-07-23T06:42:56;20.80;99.90
22925;DHT22;11628;51.072;3.712;2022-07-23T06:45:21;20.90;99.90
22925;DHT22;11628;51.072;3.712;2022-07-23T06:47:47;21.00;99.90
22925;DHT22;11628;51.072;3.712;2022-07-23T06:50:13;21.00;99.90
22925;DHT22;11628;51.072;3.712;2022-07-23T06:52:41;20.80;99.90
22925;DHT22;11628;51.072;3.712;2022-07-23T06:55:07;20.90;99.90
22925;DHT22;11628;51.072;3.712;2022-07-23T06:57:33;20.80;99.90
22925;DHT22;11628;51.072;3.712;2022-07-23T06:59:59;20.70;99.90
22925;DHT22;11628;51.072;3.712;2022-07-23T07:02:24;20.40;99.90
22925;DHT22;11628;51.072;3.712;2022-07-23T07:04:50;20.20;99.90
22925;DHT22;11628;51.072;3.712;2022-07-23T07:07:16;20.20;99.90
22925;DHT22;11628;51.072;3.712;2022-07-23T07:09:42;20.30;99.90
22925;DHT22;11628;51.072;3.712;2022-07-23T07:12:08;20.60;99.90
22925;DHT22;11628;51.072;3.712;2022-07-23T07:14:33;20.90;99.90
22925;DHT22;11628;51.072;3.712;2022-07-23T07:16:59;21.10;99.90
22925;DHT22;11628;51.072;3.712;2022-07-23T07:19:25;21.10;99.90
22925;DHT22;11628;51.072;3.712;2022-07-23T07:21:52;21.00;99.90
22925;DHT22;11628;51.072;3.712;2022-07-23T07:24:17;21.00;99.90
22925;DHT22;11628;51.072;3.712;2022-07-23T07:26:44;20.90;99.90
22925;DHT22;11628;51.072;3.712;2022-07-23T07:29:10;21.20;99.90
22925;DHT22;11628;51.072;3.712;2022-07-23T07:31:36;21.60;99.90
22925;DHT22;11628;51.072;3.712;2022-07-23T07:34:02;21.80;99.90
22925;DHT22;11628;51.072;3.712;2022-07-23T07:36:27;22.10;99.90
22925;DHT22;11628;51.072;3.712;2022-07-23T07:38:53;22.40;99.90
22925;DHT22;11628;51.072;3.712;2022-07-23T07:41:19;22.20;99.90
22925;DHT22;11628;51.072;3.712;2022-07-23T07:43:48;22.20;99.90
22925;DHT22;11628;51.072;3.712;2022-07-23T07:46:14;22.50;99.90
22925;DHT22;11628;51.072;3.712;2022-07-23T07:48:40;22.70;99.90
22925;DHT22;11628;51.072;3.712;2022-07-23T07:51:05;23.20;99.90
22925;DHT22;11628;51.072;3.712;2022-07-23T07:53:31;23.70;99.90
22925;DHT22;11628;51.072;3.712;2022-07-23T07:55:57;24.20;99.90
22925;DHT22;11628;51.072;3.712;2022-07-23T07:58:22;24.70;99.90
22925;DHT22;11628;51.072;3.712;2022-07-23T08:00:48;25.10;99.90
22925;DHT22;11628;51.072;3.712;2022-07-23T08:03:14;25.30;99.90
22925;DHT22;11628;51.072;3.712;2022-07-23T08:05:39;25.60;99.90
22925;DHT22;11628;51.072;3.712;2022-07-23T08:08:05;26.10;99.90
22925;DHT22;11628;51.072;3.712;2022-07-23T08:10:31;26.60;99.90
22925;DHT22;11628;51.072;3.712;2022-07-23T08:12:58;26.90;99.90
22925;DHT22;11628;51.072;3.712;2022-07-23T08:15:26;27.30;99.90
22925;DHT22;11628;51.072;3.712;2022-07-23T08:17:52;27.40;99.90
22925;DHT22;11628;51.072;3.712;2022-07-23T08:20:21;27.40;99.90
22925;DHT22;11628;51.072;3.712;2022-07-23T08:22:54;27.30;99.90
22925;DHT22;11628;51.072;3.712;2022-07-23T08:25:35;26.80;99.90
22925;DHT22;11628;51.072;3.712;2022-07-23T08:28:04;26.90;99.90
22925;DHT22;11628;51.072;3.712;2022-07-23T08:30:31;27.70;99.90
22925;DHT22;11628;51.072;3.712;2022-07-23T08:32:59;28.30;97.80
22925;DHT22;11628;51.072;3.712;2022-07-23T08:35:30;28.70;96.40
22925;DHT22;11628;51.072;3.712;2022-07-23T08:37:57;28.90;95.80
22925;DHT22;11628;51.072;3.712;2022-07-23T08:40:26;29.10;95.00
22925;DHT22;11628;51.072;3.712;2022-07-23T08:42:52;29.60;93.70
22925;DHT22;11628;51.072;3.712;2022-07-23T08:45:20;29.70;92.80
22925;DHT22;11628;51.072;3.712;2022-07-23T08:47:52;30.00;91.80
22925;DHT22;11628;51.072;3.712;2022-07-23T08:50:18;30.10;91.20
22925;DHT22;11628;51.072;3.712;2022-07-23T08:52:44;30.00;91.00
22925;DHT22;11628;51.072;3.712;2022-07-23T08:55:10;30.20;90.70
22925;DHT22;11628;51.072;3.712;2022-07-23T08:57:35;30.10;90.60
22925;DHT22;11628;51.072;3.712;2022-07-23T09:00:02;30.40;90.20
22925;DHT22;11628;51.072;3.712;2022-07-23T09:02:28;30.90;88.20
22925;DHT22;11628;51.072;3.712;2022-07-23T09:04:54;31.30;86.40
22925;DHT22;11628;51.072;3.712;2022-07-23T09:07:20;31.20;85.50
22925;DHT22;11628;51.072;3.712;2022-07-23T09:09:46;31.10;85.00
22925;DHT22;11628;51.072;3.712;2022-07-23T09:12:11;30.80;84.20
22925;DHT22;11628;51.072;3.712;2022-07-23T09:14:41;30.80;83.80
22925;DHT22;11628;51.072;3.712;2022-07-23T09:17:15;30.90;82.20
22925;DHT22;11628;51.072;3.712;2022-07-23T09:19:43;32.30;81.30
22925;DHT22;11628;51.072;3.712;2022-07-23T09:22:25;34.00;77.70
22925;DHT22;11628;51.072;3.712;2022-07-23T09:25:20;35.20;75.40
22925;DHT22;11628;51.072;3.712;2022-07-23T09:27:49;36.10;71.70
22925;DHT22;11628;51.072;3.712;2022-07-23T09:30:16;36.10;71.10
22925;DHT22;11628;51.072;3.712;2022-07-23T09:32:42;36.90;68.50
22925;DHT22;11628;51.072;3.712;2022-07-23T09:35:08;38.50;65.70
22925;DHT22;11628;51.072;3.712;2022-07-23T09:37:34;40.10;62.40
22925;DHT22;11628;51.072;3.712;2022-07-23T09:40:08;39.60;60.80
22925;DHT22;11628;51.072;3.712;2022-07-23T09:42:35;38.30;61.30
22925;DHT22;11628;51.072;3.712;2022-07-23T09:45:01;37.70;60.40
22925;DHT22;11628;51.072;3.712;2022-07-23T09:47:30;36.90;62.10
22925;DHT22;11628;51.072;3.712;2022-07-23T09:50:03;37.20;62.10
22925;DHT22;11628;51.072;3.712;2022-07-23T09:52:44;39.10;59.50
22925;DHT22;11628;51.072;3.712;2022-07-23T09:55:12;40.00;57.60
22925;DHT22;11628;51.072;3.712;2022-07-23T09:57:40;40.20;56.80
22925;DHT22;11628;51.072;3.712;2022-07-23T10:00:08;41.00;55.80
22925;DHT22;11628;51.072;3.712;2022-07-23T10:02:35;39.70;56.10
22925;DHT22;11628;51.072;3.712;2022-07-23T10:05:02;39.10;56.80
22925;DHT22;11628;51.072;3.712;2022-07-23T10:07:32;38.70;57.20
22925;DHT22;11628;51.072;3.712;2022-07-23T10:10:00;38.80;57.60
22925;DHT22;11628;51.072;3.712;2022-07-23T10:12:26;41.30;55.00
22925;DHT22;11628;51.072;3.712;2022-07-23T10:15:10;43.30;53.10
22925;DHT22;11628;51.072;3.712;2022-07-23T10:17:36;45.10;50.40
22925;DHT22;11628;51.072;3.712;2022-07-23T10:20:03;46.60;48.40
22925;DHT22;11628;51.072;3.712;2022-07-23T10:22:42;47.60;46.70
22925;DHT22;11628;51.072;3.712;2022-07-23T10:25:20;48.70;45.40
22925;DHT22;11628;51.072;3.712;2022-07-23T10:30:26;50.10;42.80
22925;DHT22;11628;51.072;3.712;2022-07-23T10:33:15;49.30;42.80
22925;DHT22;11628;51.072;3.712;2022-07-23T10:35:58;49.40;42.40
22925;DHT22;11628;51.072;3.712;2022-07-23T10:39:15;49.50;42.10
22925;DHT22;11628;51.072;3.712;2022-07-23T10:41:43;49.60;42.20
22925;DHT22;11628;51.072;3.712;2022-07-23T10:44:20;49.20;42.00
22925;DHT22;11628;51.072;3.712;2022-07-23T10:46:55;49.60;41.60
22925;DHT22;11628;51.072;3.712;2022-07-23T10:49:40;49.80;41.30
22925;DHT22;11628;51.072;3.712;2022-07-23T10:54:41;50.20;40.90
22925;DHT22;11628;51.072;3.712;2022-07-23T10:57:08;50.00;40.20
22925;DHT22;11628;51.072;3.712;2022-07-23T11:02:30;49.00;40.90
22925;DHT22;11628;51.072;3.712;2022-07-23T11:05:05;48.80;40.70
22925;DHT22;11628;51.072;3.712;2022-07-23T11:07:31;49.40;40.00
22925;DHT22;11628;51.072;3.712;2022-07-23T11:09:58;49.70;39.80
22925;DHT22;11628;51.072;3.712;2022-07-23T11:15:09;49.80;39.80
22925;DHT22;11628;51.072;3.712;2022-07-23T11:25:33;49.20;39.90
22925;DHT22;11628;51.072;3.712;2022-07-23T11:30:40;49.70;39.30
22925;DHT22;11628;51.072;3.712;2022-07-23T11:35:36;49.60;38.70
22925;DHT22;11628;51.072;3.712;2022-07-23T11:38:07;50.20;38.00
22925;DHT22;11628;51.072;3.712;2022-07-23T11:40:34;47.30;38.80
22925;DHT22;11628;51.072;3.712;2022-07-23T11:43:02;43.60;41.90
22925;DHT22;11628;51.072;3.712;2022-07-23T11:45:48;44.00;42.50
22925;DHT22;11628;51.072;3.712;2022-07-23T11:48:20;46.70;40.40
22925;DHT22;11628;51.072;3.712;2022-07-23T11:50:46;48.70;39.20
22925;DHT22;11628;51.072;3.712;2022-07-23T11:53:12;48.90;38.90
22925;DHT22;11628;51.072;3.712;2022-07-23T11:55:38;49.50;38.30
22925;DHT22;11628;51.072;3.712;2022-07-23T11:58:04;46.20;39.60
22925;DHT22;11628;51.072;3.712;2022-07-23T12:00:31;43.90;42.00
22925;DHT22;11628;51.072;3.712;2022-07-23T12:03:02;46.10;40.80
22925;DHT22;11628;51.072;3.712;2022-07-23T12:05:33;43.80;42.00
22925;DHT22;11628;51.072;3.712;2022-07-23T12:08:01;42.40;43.90
22925;DHT22;11628;51.072;3.712;2022-07-23T12:10:37;43.60;43.10
22925;DHT22;11628;51.072;3.712;2022-07-23T12:13:12;45.10;41.60
22925;DHT22;11628;51.072;3.712;2022-07-23T12:15:46;46.80;40.50
22925;DHT22;11628;51.072;3.712;2022-07-23T12:18:16;46.30;40.90
22925;DHT22;11628;51.072;3.712;2022-07-23T12:20:43;45.30;41.30
22925;DHT22;11628;51.072;3.712;2022-07-23T12:23:11;45.70;41.00
22925;DHT22;11628;51.072;3.712;2022-07-23T12:25:39;46.50;41.00
22925;DHT22;11628;51.072;3.712;2022-07-23T12:28:10;45.70;40.80
22925;DHT22;11628;51.072;3.712;2022-07-23T12:30:48;46.90;40.40
22925;DHT22;11628;51.072;3.712;2022-07-23T12:35:56;46.30;41.00
22925;DHT22;11628;51.072;3.712;2022-07-23T12:38:24;46.40;40.70
22925;DHT22;11628;51.072;3.712;2022-07-23T12:40:55;47.70;40.00
22925;DHT22;11628;51.072;3.712;2022-07-23T12:43:27;48.40;39.60
22925;DHT22;11628;51.072;3.712;2022-07-23T12:45:57;43.10;42.70
22925;DHT22;11628;51.072;3.712;2022-07-23T12:48:38;43.00;44.00
22925;DHT22;11628;51.072;3.712;2022-07-23T12:51:21;44.90;42.40
22925;DHT22;11628;51.072;3.712;2022-07-23T12:53:49;46.80;41.30
22925;DHT22;11628;51.072;3.712;2022-07-23T12:56:21;48.50;39.70
22925;DHT22;11628;51.072;3.712;2022-07-23T13:01:32;49.50;39.00
22925;DHT22;11628;51.072;3.712;2022-07-23T13:06:36;43.80;42.40
22925;DHT22;11628;51.072;3.712;2022-07-23T13:09:08;43.40;43.50
22925;DHT22;11628;51.072;3.712;2022-07-23T13:11:34;45.30;42.30
22925;DHT22;11628;51.072;3.712;2022-07-23T13:14:00;46.60;41.00
22925;DHT22;11628;51.072;3.712;2022-07-23T13:16:27;48.20;39.90
22925;DHT22;11628;51.072;3.712;2022-07-23T13:18:53;49.30;39.20
22925;DHT22;11628;51.072;3.712;2022-07-23T13:21:19;50.20;38.50
22925;DHT22;11628;51.072;3.712;2022-07-23T13:23:45;48.50;39.70
22925;DHT22;11628;51.072;3.712;2022-07-23T13:26:10;48.00;40.20
22925;DHT22;11628;51.072;3.712;2022-07-23T13:28:36;48.60;39.70
22925;DHT22;11628;51.072;3.712;2022-07-23T13:31:02;48.80;39.30
22925;DHT22;11628;51.072;3.712;2022-07-23T13:33:28;47.70;40.00
22925;DHT22;11628;51.072;3.712;2022-07-23T13:35:54;47.10;40.80
22925;DHT22;11628;51.072;3.712;2022-07-23T13:38:20;46.80;40.90
22925;DHT22;11628;51.072;3.712;2022-07-23T13:40:50;47.20;40.70
22925;DHT22;11628;51.072;3.712;2022-07-23T13:43:20;47.80;40.50
22925;DHT22;11628;51.072;3.712;2022-07-23T13:45:46;47.80;40.50
22925;DHT22;11628;51.072;3.712;2022-07-23T13:48:13;48.20;39.90
22925;DHT22;11628;51.072;3.712;2022-07-23T13:50:40;47.80;40.40
22925;DHT22;11628;51.072;3.712;2022-07-23T13:53:14;47.90;40.20
22925;DHT22;11628;51.072;3.712;2022-07-23T13:55:41;48.50;39.80
22925;DHT22;11628;51.072;3.712;2022-07-23T13:58:08;48.50;39.80
22925;DHT22;11628;51.072;3.712;2022-07-23T14:00:37;46.70;40.60
22925;DHT22;11628;51.072;3.712;2022-07-23T14:03:03;46.50;41.00
22925;DHT22;11628;51.072;3.712;2022-07-23T14:05:29;46.50;41.00
22925;DHT22;11628;51.072;3.712;2022-07-23T14:07:55;45.40;41.90
22925;DHT22;11628;51.072;3.712;2022-07-23T14:10:22;44.90;42.50
22925;DHT22;11628;51.072;3.712;2022-07-23T14:12:49;45.00;42.50
22925;DHT22;11628;51.072;3.712;2022-07-23T14:15:16;45.00;42.40
22925;DHT22;11628;51.072;3.712;2022-07-23T14:17:44;44.90;42.70
22925;DHT22;11628;51.072;3.712;2022-07-23T14:20:12;45.30;42.30
22925;DHT22;11628;51.072;3.712;2022-07-23T14:22:38;45.00;42.50
22925;DHT22;11628;51.072;3.712;2022-07-23T14:25:05;44.20;43.10
22925;DHT22;11628;51.072;3.712;2022-07-23T14:27:31;44.10;43.50
22925;DHT22;11628;51.072;3.712;2022-07-23T14:29:57;43.40;43.90
22925;DHT22;11628;51.072;3.712;2022-07-23T14:32:23;43.40;44.00
22925;DHT22;11628;51.072;3.712;2022-07-23T14:34:50;43.80;43.60
22925;DHT22;11628;51.072;3.712;2022-07-23T14:37:16;43.40;44.20
22925;DHT22;11628;51.072;3.712;2022-07-23T14:39:42;41.50;45.90
22925;DHT22;11628;51.072;3.712;2022-07-23T14:42:09;39.30;48.50
22925;DHT22;11628;51.072;3.712;2022-07-23T14:44:35;40.20;47.50
22925;DHT22;11628;51.072;3.712;2022-07-23T14:47:03;40.20;47.30
22925;DHT22;11628;51.072;3.712;2022-07-23T14:49:30;40.60;47.00
22925;DHT22;11628;51.072;3.712;2022-07-23T14:51:57;39.30;47.60
22925;DHT22;11628;51.072;3.712;2022-07-23T14:54:23;37.00;50.70
22925;DHT22;11628;51.072;3.712;2022-07-23T14:56:51;35.20;53.10
22925;DHT22;11628;51.072;3.712;2022-07-23T14:59:17;35.00;53.80
22925;DHT22;11628;51.072;3.712;2022-07-23T15:01:42;35.10;54.10
22925;DHT22;11628;51.072;3.712;2022-07-23T15:04:08;35.50;53.30
22925;DHT22;11628;51.072;3.712;2022-07-23T15:06:34;36.20;52.50
22925;DHT22;11628;51.072;3.712;2022-07-23T15:09:00;36.70;51.90
22925;DHT22;11628;51.072;3.712;2022-07-23T15:11:29;37.40;51.10
22925;DHT22;11628;51.072;3.712;2022-07-23T15:13:57;38.50;49.80
22925;DHT22;11628;51.072;3.712;2022-07-23T15:16:23;39.40;48.90
22925;DHT22;11628;51.072;3.712;2022-07-23T15:18:49;39.70;48.70
22925;DHT22;11628;51.072;3.712;2022-07-23T15:21:15;39.70;48.10
22925;DHT22;11628;51.072;3.712;2022-07-23T15:23:40;40.10;47.90
22925;DHT22;11628;51.072;3.712;2022-07-23T15:26:07;39.80;47.80
22925;DHT22;11628;51.072;3.712;2022-07-23T15:28:34;39.60;48.30
22925;DHT22;11628;51.072;3.712;2022-07-23T15:31:00;39.30;48.80
22925;DHT22;11628;51.072;3.712;2022-07-23T15:33:26;39.10;49.50
22925;DHT22;11628;51.072;3.712;2022-07-23T15:35:52;39.30;49.10
22925;DHT22;11628;51.072;3.712;2022-07-23T15:38:22;38.20;49.50
22925;DHT22;11628;51.072;3.712;2022-07-23T15:40:48;37.50;50.60
22925;DHT22;11628;51.072;3.712;2022-07-23T15:43:13;38.60;50.60
22925;DHT22;11628;51.072;3.712;2022-07-23T15:45:40;38.80;49.80
22925;DHT22;11628;51.072;3.712;2022-07-23T15:48:06;39.00;49.40
22925;DHT22;11628;51.072;3.712;2022-07-23T15:50:32;38.40;50.30
22925;DHT22;11628;51.072;3.712;2022-07-23T15:52:57;39.00;50.00
22925;DHT22;11628;51.072;3.712;2022-07-23T15:55:24;39.70;49.50
22925;DHT22;11628;51.072;3.712;2022-07-23T15:57:50;39.80;48.80
22925;DHT22;11628;51.072;3.712;2022-07-23T16:00:16;39.80;49.10
22925;DHT22;11628;51.072;3.712;2022-07-23T16:02:42;39.30;49.40